Donnacona, Canada
Current Conditions -  °F | °C
As of 3:00 PM on Sunday 21 Dec 2014 (Local Time) from CYQB Reporting Station
Light Snow Light Snow  
Wind Chill: 18°   Ceiling: 1500
Heat Index: 18°   Visibility: 5mi
Dew Point: 14°   Wind: 3mph
Humidity: 86%   Direction: 20°NNE
Pressure: 30.37"   Gusts: NA
Location:  46.67°N, 71.73°W
Report Text: CYQB 212000Z 02003KT 5SM -SN OVC015 M08/M10 A3037 RMK SC8 SLP291
Loading
Personal Weather Stations






























Interactive Weather Map New forecast layout! Learn more

10-Day Weather Forecast

Advertisements
Track Severe Weather on mobile